createdAt,value
2016-04-26T00:02:36.911Z,3
2016-04-26T00:05:46.533Z,3
2016-04-26T00:08:58.368Z,3
2016-04-26T00:12:13.642Z,3
2016-04-26T00:15:20.714Z,3
2016-04-26T00:18:22.612Z,3
2016-04-26T00:21:34.513Z,3
2016-04-26T00:24:43.678Z,3
2016-04-26T00:27:55.342Z,3
2016-04-26T00:31:04.757Z,3
2016-04-26T00:34:21.405Z,3.1
2016-04-26T00:37:23.366Z,3.1
2016-04-26T00:40:35.221Z,3
2016-04-26T00:43:46.962Z,3
2016-04-26T00:46:58.986Z,3
2016-04-26T00:50:15.307Z,2.9
2016-04-26T00:53:22.112Z,2.9
2016-04-26T00:56:23.949Z,2.9
2016-04-26T00:59:35.647Z,2.9
2016-04-26T01:02:47.576Z,2.9
2016-04-26T01:05:59.569Z,2.9
2016-04-26T01:09:16.593Z,2.9
2016-04-26T01:12:18.538Z,2.8
2016-04-26T01:15:30.156Z,2.7
2016-04-26T01:18:42.042Z,2.6
2016-04-26T01:21:53.846Z,2.5
2016-04-26T01:25:02.245Z,2.5
2016-04-26T01:28:18.988Z,2.4
2016-04-26T01:31:21.386Z,2.4
2016-04-26T01:34:32.847Z,2.4
2016-04-26T01:37:44.608Z,2.3
2016-04-26T01:40:56.554Z,2.2
2016-04-26T01:44:08.515Z,2.2
2016-04-26T01:47:20.540Z,2.1
2016-04-26T01:50:32.484Z,2.1
2016-04-26T01:53:44.573Z,2
2016-04-26T01:56:56.628Z,2
2016-04-26T02:00:06.589Z,1.9
2016-04-26T02:03:23.457Z,1.8
2016-04-26T02:06:25.340Z,1.7
2016-04-26T02:09:37.207Z,1.6
2016-04-26T02:12:48.874Z,1.6
2016-04-26T02:16:00.226Z,1.6
2016-04-26T02:19:16.718Z,1.6
2016-04-26T02:22:23.539Z,1.6
2016-04-26T02:25:25.352Z,1.6
2016-04-26T02:28:35.110Z,1.6
2016-04-26T02:31:49.183Z,1.6
2016-04-26T02:35:01.065Z,1.6
2016-04-26T02:38:17.683Z,1.6
2016-04-26T02:41:19.707Z,1.6
2016-04-26T02:44:31.637Z,1.6
2016-04-26T02:47:43.882Z,1.5
2016-04-26T02:50:55.655Z,1.5
2016-04-26T02:54:07.366Z,1.5
2016-04-26T02:57:18.813Z,1.5
2016-04-26T03:00:30.805Z,1.4
2016-04-26T03:03:42.832Z,1.4
2016-04-26T03:06:54.901Z,1.5
2016-04-26T03:10:09.784Z,1.5
2016-04-26T03:13:23.481Z,1.4
2016-04-26T03:16:25.425Z,1.4
2016-04-26T03:19:37.420Z,1.5
2016-04-26T03:22:49.367Z,1.5
2016-04-26T03:26:01.204Z,1.5
2016-04-26T03:29:17.900Z,1.5
2016-04-26T03:32:19.939Z,1.5
2016-04-26T03:35:29.041Z,1.5
2016-04-26T03:38:40.924Z,1.6
2016-04-26T03:41:52.888Z,1.6
2016-04-26T03:45:05.020Z,1.7
2016-04-26T03:48:21.762Z,1.6
2016-04-26T03:51:23.740Z,1.6
2016-04-26T03:54:35.810Z,1.6
2016-04-26T03:57:48.008Z,1.6
2016-04-26T04:00:59.953Z,1.7
2016-04-26T04:04:16.930Z,1.7
2016-04-26T04:07:23.877Z,1.8
2016-04-26T04:10:25.785Z,1.9
2016-04-26T04:13:37.559Z,2
2016-04-26T04:16:49.382Z,2
2016-04-26T04:20:01.218Z,2
2016-04-26T04:23:18.179Z,2.1
2016-04-26T04:26:20.250Z,2.2
2016-04-26T04:29:32.195Z,2.2
2016-04-26T04:32:42.376Z,2.3
2016-04-26T04:35:53.230Z,2.3
2016-04-26T04:39:01.926Z,2.4
2016-04-26T04:45:21.004Z,2.5
2016-04-26T04:48:30.356Z,2.6
2016-04-26T04:51:42.458Z,2.7
2016-04-26T04:54:52.703Z,2.7
2016-04-26T04:58:04.445Z,2.7
2016-04-26T05:01:18.235Z,2.8
2016-04-26T05:04:20.258Z,2.9
2016-04-26T05:07:32.111Z,3
2016-04-26T05:10:44.041Z,3.1
2016-04-26T05:13:52.785Z,3.1
2016-04-26T05:17:03.012Z,3.2
2016-04-26T05:20:22.037Z,3.2
2016-04-26T05:23:24.075Z,3.3
2016-04-26T05:26:36.036Z,3.3
2016-04-26T05:29:48.297Z,3.3
2016-04-26T05:32:58.367Z,3.4
2016-04-26T05:36:14.516Z,3.4
2016-04-26T05:39:21.696Z,3.5
2016-04-26T05:42:23.798Z,3.5
2016-04-26T05:45:35.946Z,3.6
2016-04-26T05:48:46.611Z,3.7
2016-04-26T05:51:58.700Z,3.7
2016-04-26T05:55:15.958Z,3.8
2016-04-26T05:58:23.021Z,3.8
2016-04-26T06:01:26.180Z,3.8
2016-04-26T06:04:36.485Z,3.9
2016-04-26T06:07:48.605Z,4
2016-04-26T06:11:00.613Z,4
2016-04-26T06:14:17.559Z,4
2016-04-26T06:17:19.599Z,4
2016-04-26T06:20:31.809Z,4.1
2016-04-26T06:23:41.461Z,4.2
2016-04-26T06:26:53.659Z,4.2
2016-04-26T06:30:05.918Z,4.2
2016-04-26T06:33:23.082Z,4.2
2016-04-26T06:36:25.231Z,4.2
2016-04-26T06:39:37.050Z,4.3
2016-04-26T06:42:48.933Z,4.3
2016-04-26T06:46:01.117Z,4.3
2016-04-26T06:49:18.249Z,4.4
2016-04-26T06:52:20.429Z,4.4
2016-04-26T06:55:32.594Z,4.4
2016-04-26T06:58:44.773Z,4.5
2016-04-26T07:01:57.034Z,4.5
2016-04-26T07:05:08.887Z,4.5
2016-04-26T07:08:20.879Z,4.5
2016-04-26T07:11:33.044Z,4.5
2016-04-26T07:14:45.161Z,4.6
2016-04-26T07:17:58.266Z,4.5
2016-04-26T07:21:14.571Z,4.4
2016-04-26T07:24:21.629Z,4.3
2016-04-26T07:27:23.685Z,4.2
2016-04-26T07:30:35.771Z,4.2
2016-04-26T07:33:47.873Z,4
2016-04-26T07:36:59.961Z,3.9
2016-04-26T07:40:16.955Z,3.9
2016-04-26T07:43:23.931Z,3.9
2016-04-26T07:46:25.970Z,3.9
2016-04-26T07:49:37.838Z,3.9
2016-04-26T07:52:50.018Z,4
2016-04-26T07:56:02.184Z,4.1
2016-04-26T07:59:19.365Z,4.3
2016-04-26T08:02:21.559Z,4.4
2016-04-26T08:05:33.522Z,4.6
2016-04-26T08:08:43.670Z,4.5
2016-04-26T08:11:55.228Z,4.5
2016-04-26T08:15:05.095Z,4.5
2016-04-26T08:18:24.432Z,4.5
2016-04-26T08:21:26.346Z,4.6
2016-04-26T08:24:38.307Z,4.6
2016-04-26T08:27:50.331Z,4.6
2016-04-26T08:31:01.892Z,4.6
2016-04-26T08:34:19.167Z,4.5
2016-04-26T08:37:21.401Z,4.4
2016-04-26T08:40:31.141Z,4.3
2016-04-26T08:43:43.040Z,4.3
2016-04-26T08:46:55.143Z,4.5
2016-04-26T08:50:07.127Z,4.7
2016-04-26T08:53:24.246Z,5
2016-04-26T08:56:26.381Z,5.3
2016-04-26T08:59:38.438Z,5.5
2016-04-26T09:02:50.304Z,5.5
2016-04-26T09:06:02.410Z,5.5
2016-04-26T09:09:19.589Z,5.6
2016-04-26T09:12:21.879Z,5.6
2016-04-26T09:15:34.042Z,5.6
2016-04-26T09:18:46.520Z,5.9
2016-04-26T09:21:59.172Z,6.6
2016-04-26T09:25:16.711Z,7.9
2016-04-26T09:28:24.969Z,10.7
2016-04-26T09:31:28.367Z,12.6
2016-04-26T09:34:41.391Z,12.2
2016-04-26T09:37:51.806Z,11.3
2016-04-26T09:41:06.848Z,11.7
2016-04-26T09:44:21.621Z,12.6
2016-04-26T09:47:24.597Z,11.5
2016-04-26T09:50:37.044Z,10.3
2016-04-26T09:53:49.052Z,9.4
2016-04-26T09:57:01.437Z,9.1
2016-04-26T10:00:16.149Z,8.7
2016-04-26T10:03:24.126Z,8.4
2016-04-26T10:06:26.149Z,8.3
2016-04-26T10:09:38.610Z,8.3
2016-04-26T10:12:51.181Z,8.1
2016-04-26T10:16:03.831Z,7.7
2016-04-26T10:19:21.028Z,7.7
2016-04-26T10:22:23.519Z,7.4
2016-04-26T10:25:35.918Z,7.1
2016-04-26T10:28:48.208Z,7.2
2016-04-26T10:32:00.641Z,7.3
2016-04-26T10:35:18.180Z,7.2
2016-04-26T10:38:20.578Z,7.2
2016-04-26T10:41:33.259Z,7.5
2016-04-26T10:44:45.517Z,7.7
2016-04-26T10:47:58.087Z,8
2016-04-26T10:51:14.551Z,8
2016-04-26T10:54:23.138Z,8.2
2016-04-26T10:57:25.896Z,8.5
2016-04-26T11:00:38.591Z,8.6
2016-04-26T11:03:51.147Z,8.7
2016-04-26T11:07:07.829Z,8.4
2016-04-26T11:10:20.946Z,8.1
2016-04-26T11:13:23.611Z,8
2016-04-26T11:16:36.165Z,7.9
2016-04-26T11:19:48.595Z,7.7
2016-04-26T11:22:59.853Z,7.6
2016-04-26T11:26:17.645Z,7.8
2016-04-26T11:29:20.467Z,8.1
2016-04-26T11:32:33.036Z,8.2
2016-04-26T11:35:45.717Z,8.1
2016-04-26T11:38:58.382Z,8.2
2016-04-26T11:42:16.142Z,8.4
2016-04-26T11:45:26.385Z,8.7
2016-04-26T11:48:27.096Z,9
2016-04-26T11:51:36.275Z,9.1
2016-04-26T11:54:48.737Z,8.8
2016-04-26T11:58:01.510Z,8.6
2016-04-26T12:01:19.099Z,8.5
2016-04-26T12:04:22.029Z,8.6
2016-04-26T12:07:34.756Z,8.7
2016-04-26T12:10:47.638Z,8.9
2016-04-26T12:14:00.334Z,9
2016-04-26T12:17:17.768Z,8.9
2016-04-26T12:20:20.494Z,8.7
2016-04-26T12:23:33.205Z,8.6
2016-04-26T12:26:45.744Z,8.5
2016-04-26T12:29:58.378Z,8.4
2016-04-26T12:33:08.417Z,8.2
2016-04-26T12:36:21.241Z,8.3
2016-04-26T12:39:33.733Z,8.4
2016-04-26T12:42:46.366Z,8.3
2016-04-26T12:45:58.764Z,8.2
2016-04-26T12:49:16.556Z,8.1
2016-04-26T12:52:24.346Z,8
2016-04-26T12:55:27.089Z,8
2016-04-26T12:58:37.487Z,8.1
2016-04-26T13:01:52.448Z,8.3
2016-04-26T13:05:05.003Z,8.5
2016-04-26T13:08:22.669Z,8.5
2016-04-26T13:11:25.459Z,8.6
2016-04-26T13:14:38.389Z,8.6
2016-04-26T13:17:48.887Z,8.3
2016-04-26T13:21:03.426Z,8.1
2016-04-26T13:24:18.671Z,8.3
2016-04-26T13:27:21.398Z,8.5
2016-04-26T13:30:33.406Z,8.8
2016-04-26T13:33:46.274Z,8.9
2016-04-26T13:36:56.829Z,8.9
2016-04-26T13:40:16.337Z,8.6
2016-04-26T13:43:24.176Z,8.6
2016-04-26T13:46:26.918Z,8.6
2016-04-26T13:49:39.629Z,8.7
2016-04-26T13:52:52.122Z,8.7
2016-04-26T13:56:04.834Z,8.6
2016-04-26T13:59:22.434Z,8.6
2016-04-26T14:02:25.023Z,8.6
2016-04-26T14:05:37.703Z,8.7
2016-04-26T14:08:50.446Z,8.8
2016-04-26T14:12:02.516Z,8.7
2016-04-26T14:15:20.149Z,8.7
2016-04-26T14:18:22.892Z,8.7
2016-04-26T14:21:33.137Z,8.8
2016-04-26T14:24:45.541Z,8.9
2016-04-26T14:27:58.190Z,8.9
2016-04-26T14:31:15.916Z,8.7
2016-04-26T14:34:24.096Z,8.8
2016-04-26T14:37:26.310Z,8.8
2016-04-26T14:40:38.834Z,8.8
2016-04-26T14:43:55.107Z,8.9
2016-04-26T14:47:02.740Z,9
2016-04-26T14:50:20.312Z,9.2
2016-04-26T14:53:23.178Z,9.2
2016-04-26T14:56:35.798Z,9.4
2016-04-26T14:59:48.276Z,9.5
2016-04-26T15:03:00.924Z,9.5
2016-04-26T15:06:18.526Z,9.4
2016-04-26T15:09:21.331Z,9.2
2016-04-26T15:12:33.702Z,8.9
2016-04-26T15:15:46.412Z,8.9
2016-04-26T15:18:59.046Z,8.9
2016-04-26T15:22:16.712Z,8.8
2016-04-26T15:25:24.473Z,8.7
2016-04-26T15:28:27.215Z,8.6
2016-04-26T15:31:41.070Z,8.5
2016-04-26T15:34:52.625Z,8.4
2016-04-26T15:38:05.367Z,8.3
2016-04-26T15:41:23.000Z,8.3
2016-04-26T15:44:25.774Z,8.2
2016-04-26T15:47:38.207Z,8.3
2016-04-26T15:50:50.605Z,8.3
2016-04-26T15:54:01.926Z,8.2
2016-04-26T15:57:19.575Z,8.2
2016-04-26T16:00:22.333Z,8.1
2016-04-26T16:03:34.672Z,8
2016-04-26T16:06:47.258Z,7.5
2016-04-26T16:09:59.844Z,6.9
2016-04-26T16:13:16.821Z,6.4
2016-04-26T16:16:24.297Z,6.2
2016-04-26T16:19:27.602Z,6.4
2016-04-26T16:22:39.504Z,6.7
2016-04-26T16:25:52.028Z,6.8
2016-04-26T16:29:04.364Z,6.8
2016-04-26T16:32:21.935Z,6.7
2016-04-26T16:35:24.411Z,6.8
2016-04-26T16:38:37.000Z,6.9
2016-04-26T16:41:53.367Z,6.9
2016-04-26T16:45:01.704Z,6.9
2016-04-26T16:48:18.821Z,6.7
2016-04-26T16:51:21.438Z,6.7
2016-04-26T16:54:33.543Z,6.7
2016-04-26T16:57:45.817Z,6.6
2016-04-26T17:00:58.153Z,6.5
2016-04-26T17:04:10.567Z,6.5
2016-04-26T17:07:22.903Z,6.4
2016-04-26T17:10:34.977Z,6.3
2016-04-26T17:13:47.416Z,6.2
2016-04-26T17:16:57.346Z,6.1
2016-04-26T17:20:13.745Z,6
2016-04-26T17:23:21.879Z,5.9
2016-04-26T17:26:34.295Z,5.7
2016-04-26T17:29:46.772Z,5.6
2016-04-26T17:32:57.078Z,5.5
2016-04-26T17:36:16.397Z,5.4
2016-04-26T17:39:24.014Z,5.4
2016-04-26T17:42:26.644Z,5.3
2016-04-26T17:45:38.948Z,5.1
2016-04-26T17:48:51.337Z,5
2016-04-26T17:52:03.654Z,5.1
2016-04-26T17:55:20.732Z,5.1
2016-04-26T17:58:23.196Z,5.1
2016-04-26T18:01:35.898Z,5.1
2016-04-26T18:04:42.812Z,5.2
2016-04-26T18:07:57.132Z,5.2
2016-04-26T18:11:09.172Z,5.2
2016-04-26T18:14:21.398Z,5.2
2016-04-26T18:17:33.609Z,5.2
2016-04-26T18:20:43.042Z,5.2
2016-04-26T18:23:55.503Z,5.2
2016-04-26T18:27:07.746Z,5.2
2016-04-26T18:30:24.098Z,5.1
2016-04-26T18:33:26.652Z,4.9
2016-04-26T18:36:39.242Z,4.4
2016-04-26T18:39:51.343Z,3.9
2016-04-26T18:43:02.212Z,3.5
2016-04-26T18:46:19.251Z,3.2
2016-04-26T18:49:26.430Z,3.3
2016-04-26T18:52:28.797Z,3.4
2016-04-26T18:55:41.056Z,3.4
2016-04-26T18:58:53.222Z,3.5
2016-04-26T19:02:05.668Z,3.5
2016-04-26T19:05:23.035Z,3.5
2016-04-26T19:08:25.325Z,3.5
2016-04-26T19:11:37.474Z,3.5
2016-04-26T19:14:46.326Z,3.6
2016-04-26T19:17:58.649Z,3.6
2016-04-26T19:21:10.375Z,3.5
2016-04-26T19:24:27.414Z,3.5
2016-04-26T19:27:29.689Z,3.5
2016-04-26T19:30:41.728Z,3.5
2016-04-26T19:33:54.192Z,3.5
2016-04-26T19:37:06.560Z,3.5
2016-04-26T19:40:23.771Z,3.5
2016-04-26T19:43:26.076Z,3.6
2016-04-26T19:46:36.459Z,3.6
2016-04-26T19:49:52.517Z,3.6
2016-04-26T19:53:00.462Z,3.6
2016-04-26T19:56:12.470Z,3.5
2016-04-26T19:59:23.931Z,3.4
2016-04-26T20:02:36.158Z,3.3
2016-04-26T20:05:48.229Z,3.2
2016-04-26T20:09:00.505Z,3.2
2016-04-26T20:12:10.466Z,3.1
2016-04-26T20:15:29.632Z,3.1
2016-04-26T20:18:31.998Z,3.1
2016-04-26T20:21:44.023Z,3
2016-04-26T20:24:56.014Z,3
2016-04-26T20:28:05.759Z,3
2016-04-26T20:31:25.689Z,3
2016-04-26T20:34:31.900Z,3.1
2016-04-26T20:37:39.861Z,3.1
2016-04-26T20:40:52.120Z,3.1
2016-04-26T20:44:04.068Z,3
2016-04-26T20:47:20.670Z,2.9
2016-04-26T20:50:28.007Z,2.9
2016-04-26T20:53:29.984Z,2.9
2016-04-26T20:56:42.194Z,2.9
2016-04-26T20:59:54.546Z,2.8
2016-04-26T21:03:06.667Z,2.8
2016-04-26T21:06:23.689Z,2.8
2016-04-26T21:09:25.870Z,2.8
2016-04-26T21:12:36.941Z,2.8
2016-04-26T21:15:49.105Z,2.7
2016-04-26T21:19:01.082Z,2.7
2016-04-26T21:22:15.952Z,2.7
2016-04-26T21:25:28.679Z,2.7
2016-04-26T21:28:30.749Z,2.7
2016-04-26T21:31:42.726Z,2.7
2016-04-26T21:34:52.594Z,2.7
2016-04-26T21:38:04.776Z,2.8
2016-04-26T21:41:16.238Z,2.8
2016-04-26T21:44:28.246Z,2.9
2016-04-26T21:47:38.238Z,2.9
2016-04-26T21:50:50.199Z,3
2016-04-26T21:54:02.457Z,3
2016-04-26T21:57:14.702Z,3
2016-04-26T22:00:31.570Z,3
2016-04-26T22:03:33.828Z,3
2016-04-26T22:06:46.070Z,2.9
2016-04-26T22:09:58.375Z,2.9
2016-04-26T22:13:10.511Z,2.9
2016-04-26T22:16:27.660Z,2.8
2016-04-26T22:19:34.793Z,2.8
2016-04-26T22:22:37.035Z,2.8
2016-04-26T22:25:49.199Z,2.8
2016-04-26T22:29:01.192Z,2.8
2016-04-26T22:32:13.468Z,2.8
2016-04-26T22:35:23.633Z,2.8
2016-04-26T22:38:37.859Z,2.8
2016-04-26T22:41:40.899Z,2.7
2016-04-26T22:44:52.094Z,2.7
2016-04-26T22:48:03.430Z,2.6
2016-04-26T22:51:15.410Z,2.6
2016-04-26T22:54:24.121Z,2.5
2016-04-26T22:57:38.645Z,2.5
2016-04-26T23:00:40.809Z,2.4
2016-04-26T23:03:53.067Z,2.4
2016-04-26T23:07:05.232Z,2.3
2016-04-26T23:10:16.664Z,2.2
2016-04-26T23:13:31.297Z,2.1
2016-04-26T23:16:38.384Z,2.1
2016-04-26T23:19:40.458Z,2.1
2016-04-26T23:22:52.294Z,2
2016-04-26T23:26:04.443Z,2
2016-04-26T23:29:16.625Z,2
2016-04-26T23:32:33.531Z,1.9
2016-04-26T23:38:42.798Z,1.8
2016-04-26T23:41:54.790Z,1.8
2016-04-26T23:45:06.985Z,1.8
2016-04-26T23:48:16.403Z,1.7
2016-04-26T23:51:25.551Z,1.7
2016-04-26T23:54:36.855Z,1.7
2016-04-26T23:57:48.957Z,1.7
